Time;durP1;ratioP1;P1;durP2;ratioP2;P2;SDS_P1;SDS_P2;PMS_P1;PMS_P2;Temp;Humidity;BMP_temperature;BMP_pressure;BME280_temperature;BME280_humidity;BME280_pressure;Samples;Min_cycle;Max_cycle;Signal;HPM_P1;HPM_P2
2021/08/04 00:00:29;;;;;;;23.10;13.40;;;;;;;15.60;77.47;99620.72;129421;1090;113035;-86
2021/08/04 00:02:58;;;;;;;27.10;15.13;;;;;;;15.59;77.50;99624.56;129079;1090;22788;-85
2021/08/04 00:05:31;;;;;;;24.55;13.68;;;;;;;15.60;77.62;99630.88;129225;1089;114603;-86
2021/08/04 00:08:09;;;;;;;30.03;14.65;;;;;;;15.58;77.34;99633.94;129295;1089;22757;-86
2021/08/04 00:10:46;;;;;;;24.37;12.67;;;;;;;15.55;77.46;99631.77;129088;1090;23302;-86
2021/08/04 00:13:16;;;;;;;29.28;14.30;;;;;;;15.53;77.39;99629.27;129304;1090;113156;-85
2021/08/04 00:16:04;;;;;;;28.30;13.63;;;;;;;15.52;77.33;99637.80;129236;1088;25157;-86
2021/08/04 00:18:33;;;;;;;28.48;12.73;;;;;;;15.50;77.33;99631.77;129109;1089;114359;-87
2021/08/04 00:21:03;;;;;;;25.55;12.73;;;;;;;15.46;77.04;99634.26;129086;1090;22856;-86
2021/08/04 00:23:31;;;;;;;28.43;11.53;;;;;;;15.43;77.03;99643.09;129153;1090;114349;-86
2021/08/04 00:26:00;;;;;;;23.90;12.68;;;;;;;15.40;77.00;99642.84;129159;1090;22799;-86
2021/08/04 00:28:30;;;;;;;20.10;11.38;;;;;;;15.35;77.22;99643.69;129315;1090;22838;-86
2021/08/04 00:30:59;;;;;;;21.43;12.45;;;;;;;15.32;77.13;99640.69;130014;1089;112847;-86
2021/08/04 00:33:28;;;;;;;21.30;12.40;;;;;;;15.29;77.00;99633.05;129836;1089;22927;-87
2021/08/04 00:35:57;;;;;;;18.90;10.70;;;;;;;15.25;77.37;99634.72;129261;1090;114228;-86
2021/08/04 00:38:26;;;;;;;21.48;12.60;;;;;;;15.19;77.47;99642.98;130477;1090;22690;-87
2021/08/04 00:40:55;;;;;;;16.43;11.23;;;;;;;15.16;77.72;99634.48;129509;1090;23029;-87
2021/08/04 00:44:26;;;;;;;16.87;11.17;;;;;;;15.13;77.97;99655.12;125831;1091;22771;-57
2021/08/04 00:47:01;;;;;;;19.20;11.48;;;;;;;15.13;78.04;99648.80;125483;1090;25396;-60
2021/08/04 00:49:30;;;;;;;16.23;10.80;;;;;;;15.14;78.17;99656.76;125148;1092;113723;-59
2021/08/04 00:51:59;;;;;;;22.28;11.40;;;;;;;15.15;77.98;99652.06;125058;1095;22791;-59
2021/08/04 00:54:28;;;;;;;18.05;10.55;;;;;;;15.14;77.78;99648.52;129618;1096;113619;-60
2021/08/04 00:56:57;;;;;;;17.05;10.23;;;;;;;15.13;77.86;99643.31;129723;1097;22565;-60
2021/08/04 00:59:26;;;;;;;15.50;10.63;;;;;;;15.13;77.88;99655.12;129604;1096;114324;-59
2021/08/04 01:02:06;;;;;;;16.35;10.68;;;;;;;15.11;78.01;99649.09;129382;1095;22987;-60
2021/08/04 01:04:43;;;;;;;18.35;11.45;;;;;;;15.10;78.00;99647.45;129659;1096;23364;-60
2021/08/04 01:07:29;;;;;;;15.03;10.60;;;;;;;15.08;77.99;99646.91;129552;1096;113803;-59
2021/08/04 01:10:15;;;;;;;14.30;9.53;;;;;;;15.06;78.07;99648.29;129697;1095;22595;-60
2021/08/04 01:13:13;;;;;;;14.30;10.85;;;;;;;15.03;77.98;99655.16;129343;1097;114289;-60
2021/08/04 01:16:09;;;;;;;13.68;10.35;;;;;;;15.00;78.12;99650.27;129381;1096;22567;-60
2021/08/04 01:18:58;;;;;;;13.08;9.95;;;;;;;14.97;77.97;99650.83;129201;1096;114399;-57
2021/08/04 01:21:34;;;;;;;17.35;9.93;;;;;;;14.93;77.82;99643.44;129681;1095;22589;-59
2021/08/04 01:24:11;;;;;;;19.88;10.75;;;;;;;14.90;77.81;99647.56;129547;1093;114037;-60
2021/08/04 01:26:43;;;;;;;14.88;10.25;;;;;;;14.85;77.69;99647.61;129785;1093;25323;-60
2021/08/04 01:29:14;;;;;;;14.90;10.23;;;;;;;14.82;77.86;99648.98;129793;1093;22628;-60
2021/08/04 01:31:43;;;;;;;18.30;10.35;;;;;;;14.79;77.82;99644.06;129688;1093;113755;-60
2021/08/04 01:34:12;;;;;;;16.38;10.15;;;;;;;14.78;77.98;99647.09;129728;1093;22562;-60
2021/08/04 01:36:41;;;;;;;20.75;10.50;;;;;;;14.77;77.92;99639.95;129639;1093;114218;-60
2021/08/04 01:39:10;;;;;;;24.88;10.95;;;;;;;14.75;77.99;99640.23;129743;1093;22579;-60
2021/08/04 01:41:38;;;;;;;26.55;12.03;;;;;;;14.73;78.02;99647.09;129725;1093;114148;-60
2021/08/04 01:44:07;;;;;;;25.70;11.20;;;;;;;14.71;78.26;99641.10;129746;1093;22533;-60
2021/08/04 01:46:36;;;;;;;18.48;10.48;;;;;;;14.69;78.12;99641.38;129837;1093;22553;-60
2021/08/04 01:49:05;;;;;;;21.05;10.38;;;;;;;14.66;78.11;99641.12;129684;1093;113885;-59
2021/08/04 01:51:34;;;;;;;21.70;10.68;;;;;;;14.63;78.21;99642.49;129745;1093;22838;-60
2021/08/04 01:54:03;;;;;;;17.85;11.30;;;;;;;14.61;78.05;99639.21;129671;1093;114511;-59
2021/08/04 01:56:32;;;;;;;13.60;9.95;;;;;;;14.60;78.02;99639.48;129780;1093;22927;-59
2021/08/04 01:59:01;;;;;;;15.78;10.20;;;;;;;14.57;78.29;99638.13;129757;1093;23503;-59
2021/08/04 02:01:30;;;;;;;18.18;10.90;;;;;;;14.56;78.13;99636.52;129748;1093;113934;-60
2021/08/04 02:04:00;;;;;;;17.48;10.55;;;;;;;14.55;78.23;99636.79;129784;1092;23101;-59
2021/08/04 02:06:46;;;;;;;18.38;10.78;;;;;;;14.52;78.54;99643.65;129691;1093;114147;-60
2021/08/04 02:09:38;;;;;;;15.93;10.57;;;;;;;14.50;78.31;99640.36;129750;1093;22545;-60
2021/08/04 02:12:10;;;;;;;20.50;10.33;;;;;;;14.43;78.31;99643.39;129669;1093;113974;-60
2021/08/04 02:14:59;;;;;;;17.28;11.18;;;;;;;14.45;78.55;99652.16;129772;1093;22828;-59
2021/08/04 02:17:38;;;;;;;22.48;11.63;;;;;;;14.42;78.51;99649.19;129660;1092;114165;-57
2021/08/04 02:20:25;;;;;;;32.03;13.48;;;;;;;14.38;78.33;99648.06;129814;1093;22558;-58
2021/08/04 02:23:01;;;;;;;21.45;11.73;;;;;;;14.35;78.65;99648.61;129764;1092;22819;-58
2021/08/04 02:25:38;;;;;;;18.98;12.40;;;;;;;14.33;79.01;99657.11;129694;1093;114017;-58
2021/08/04 02:28:07;;;;;;;30.78;12.48;;;;;;;14.32;78.72;99655.47;129763;1092;22666;-58
2021/08/04 02:30:39;;;;;;;28.50;13.25;;;;;;;14.29;78.70;99646.98;129855;1093;113941;-58
2021/08/04 02:33:08;;;;;;;21.93;11.98;;;;;;;14.25;78.87;99660.44;129782;1093;23423;-58
2021/08/04 02:35:36;;;;;;;22.80;12.18;;;;;;;14.24;78.86;99656.06;129654;1093;114064;-58
2021/08/04 02:38:06;;;;;;;23.78;11.53;;;;;;;14.21;78.88;99656.61;129814;1092;23606;-58
2021/08/04 02:40:34;;;;;;;22.03;12.05;;;;;;;14.20;78.87;99654.14;130038;1092;22524;-58
2021/08/04 02:43:03;;;;;;;24.63;11.08;;;;;;;14.19;79.03;99658.80;129684;1093;113971;-58
2021/08/04 02:45:32;;;;;;;20.20;10.50;;;;;;;14.20;78.92;99663.19;129850;1092;23012;-58
2021/08/04 02:48:02;;;;;;;23.53;11.88;;;;;;;14.23;79.21;99662.63;129698;1093;114413;-59
2021/08/04 02:50:32;;;;;;;17.53;11.93;;;;;;;14.26;79.37;99662.09;129802;1093;22522;-58
2021/08/04 02:53:02;;;;;;;27.78;11.35;;;;;;;14.30;79.21;99667.81;129804;1093;23427;-58
2021/08/04 02:55:31;;;;;;;23.70;11.43;;;;;;;14.32;79.42;99663.69;129658;1093;113913;-58
2021/08/04 02:58:01;;;;;;;17.15;11.35;;;;;;;14.34;78.89;99663.42;129838;1093;23292;-58
2021/08/04 03:00:30;;;;;;;22.40;12.03;;;;;;;14.35;79.25;99665.88;129838;1093;113952;-58
2021/08/04 03:02:59;;;;;;;31.53;11.85;;;;;;;14.38;79.30;99665.33;129954;1093;22590;-59
2021/08/04 03:05:28;;;;;;;26.93;11.80;;;;;;;14.41;79.63;99673.03;129670;1093;114128;-58
2021/08/04 03:07:57;;;;;;;22.38;11.28;;;;;;;14.45;79.78;99665.87;130031;1093;22541;-58
2021/08/04 03:10:26;;;;;;;24.85;11.35;;;;;;;14.50;79.54;99676.83;129830;1092;22537;-58
2021/08/04 03:12:55;;;;;;;26.63;12.33;;;;;;;14.54;79.90;99666.13;129854;1093;114256;-58
2021/08/04 03:15:24;;;;;;;24.45;11.70;;;;;;;14.60;80.08;99675.14;129833;1093;22621;-58
2021/08/04 03:17:56;;;;;;;22.80;12.93;;;;;;;14.65;79.90;99670.46;129861;1093;114185;-58
2021/08/04 03:20:25;;;;;;;25.63;12.93;;;;;;;14.73;80.38;99671.78;129967;1092;22555;-61
2021/08/04 03:22:54;;;;;;;26.90;11.90;;;;;;;14.82;80.70;99675.59;129937;1093;22688;-59
2021/08/04 03:25:23;;;;;;;21.15;12.23;;;;;;;14.91;80.86;99676.64;129895;1093;113950;-58
2021/08/04 03:27:52;;;;;;;31.98;12.90;;;;;;;15.03;80.88;99682.59;129959;1092;22640;-58
2021/08/04 03:30:21;;;;;;;36.08;12.55;;;;;;;15.14;81.18;99681.45;129857;1093;113931;-58
2021/08/04 03:32:50;;;;;;;27.95;11.53;;;;;;;15.28;81.05;99680.82;129985;1093;22693;-58
2021/08/04 03:35:19;;;;;;;27.93;11.20;;;;;;;15.40;80.86;99686.77;130001;1093;22553;-58
2021/08/04 03:37:48;;;;;;;28.98;11.25;;;;;;;15.53;80.65;99686.13;129738;1092;114335;-58
2021/08/04 03:40:17;;;;;;;22.80;11.95;;;;;;;15.66;80.43;99681.92;129940;1092;23614;-58
2021/08/04 03:42:46;;;;;;;24.20;10.13;;;;;;;15.79;80.13;99686.75;129724;1092;114012;-58
2021/08/04 03:45:14;;;;;;;18.28;10.88;;;;;;;15.90;79.80;99686.37;129910;1092;22590;-58
2021/08/04 03:47:45;;;;;;;24.83;10.70;;;;;;;16.01;79.24;99687.11;129907;1092;114491;-58
2021/08/04 03:50:13;;;;;;;20.33;10.23;;;;;;;16.12;79.04;99687.83;129962;1092;22560;-58
2021/08/04 03:52:43;;;;;;;21.65;10.48;;;;;;;16.21;78.85;99695.14;130043;1092;23245;-59
2021/08/04 03:55:13;;;;;;;19.98;11.90;;;;;;;16.32;78.66;99690.34;129695;1093;115174;-58
2021/08/04 03:57:42;;;;;;;20.88;10.73;;;;;;;16.41;78.35;99699.61;129980;1093;22549;-58
2021/08/04 04:00:11;;;;;;;23.05;10.50;;;;;;;16.48;78.22;99702.00;129726;1093;114103;-58
2021/08/04 04:02:51;;;;;;;22.93;11.78;;;;;;;16.53;78.13;99697.27;129800;1093;23418;-58
2021/08/04 04:05:20;;;;;;;18.30;10.43;;;;;;;16.66;77.99;99701.27;130014;1093;22567;-58
2021/08/04 04:07:48;;;;;;;25.35;11.25;;;;;;;16.75;77.80;99704.18;129856;1092;113552;-58
2021/08/04 04:10:17;;;;;;;19.68;11.18;;;;;;;16.84;77.51;99702.44;129982;1093;22593;-58
2021/08/04 04:12:46;;;;;;;26.18;11.73;;;;;;;16.93;76.54;99703.41;129708;1092;113912;-58
2021/08/04 04:15:15;;;;;;;32.17;13.53;;;;;;;17.01;75.71;99704.70;130010;1092;22547;-58
2021/08/04 04:17:44;;;;;;;29.65;13.53;;;;;;;17.11;75.17;99707.30;129876;1093;114260;-58
2021/08/04 04:20:13;;;;;;;31.88;14.23;;;;;;;17.23;74.46;99713.19;129963;1092;23572;-58
2021/08/04 04:22:44;;;;;;;23.83;12.55;;;;;;;17.34;74.11;99709.16;130020;1093;23314;-58
2021/08/04 04:25:14;;;;;;;31.73;14.68;;;;;;;17.47;73.78;99704.83;129918;1093;113945;-58
2021/08/04 04:27:44;;;;;;;32.80;14.85;;;;;;;17.57;73.36;99700.00;129967;1093;22549;-58
2021/08/04 04:30:14;;;;;;;27.95;12.43;;;;;;;17.65;73.09;99693.83;129661;1093;114286;-58
2021/08/04 04:32:43;;;;;;;32.45;13.75;;;;;;;17.76;72.55;99697.23;129970;1093;22560;-58
2021/08/04 04:35:12;;;;;;;22.98;11.93;;;;;;;17.86;71.96;99696.27;130008;1093;23748;-58
2021/08/04 04:37:56;;;;;;;31.95;13.35;;;;;;;17.98;71.71;99694.66;129866;1092;114212;-59
2021/08/04 04:40:26;;;;;;;27.78;14.53;;;;;;;18.09;71.45;99698.05;129814;1092;22555;-58
2021/08/04 04:42:54;;;;;;;27.55;14.48;;;;;;;18.22;71.67;99696.43;129853;1092;113987;-58
2021/08/04 04:45:23;;;;;;;50.85;14.15;;;;;;;18.32;71.66;99705.33;130040;1093;23223;-58
2021/08/04 04:47:52;;;;;;;33.83;14.93;;;;;;;18.44;71.36;99709.55;129666;1093;114281;-58
2021/08/04 04:50:22;;;;;;;44.75;14.90;;;;;;;18.57;71.05;99714.26;129950;1093;22673;-58
2021/08/04 04:52:51;;;;;;;34.38;14.78;;;;;;;18.68;70.69;99718.48;129814;1093;22521;-58
2021/08/04 04:55:21;;;;;;;26.98;14.18;;;;;;;18.81;70.06;99717.66;129706;1092;114065;-58
2021/08/04 04:57:50;;;;;;;22.00;12.55;;;;;;;18.94;69.32;99714.06;129957;1093;22557;-58
2021/08/04 05:00:19;;;;;;;33.63;13.73;;;;;;;19.08;69.25;99705.75;129948;1090;114290;-59
2021/08/04 05:02:48;;;;;;;30.90;13.83;;;;;;;19.25;68.74;99702.34;130095;1092;22599;-58
2021/08/04 05:05:17;;;;;;;27.53;12.03;;;;;;;19.46;68.55;99708.23;130072;1090;23297;-58
2021/08/04 05:07:47;;;;;;;30.55;12.53;;;;;;;19.64;67.78;99704.48;129974;1091;114069;-58
2021/08/04 05:10:16;;;;;;;25.70;11.80;;;;;;;19.84;66.59;99701.23;129818;1093;22622;-58
2021/08/04 05:12:45;;;;;;;23.45;10.30;;;;;;;20.02;65.94;99702.99;129657;1093;114284;-59
2021/08/04 05:15:14;;;;;;;21.13;9.53;;;;;;;20.29;65.18;99715.84;129808;1093;22712;-58
2021/08/04 05:17:43;;;;;;;20.87;9.47;;;;;;;20.48;64.34;99718.41;129724;1093;115567;-59
2021/08/04 05:20:12;;;;;;;24.50;10.20;;;;;;;20.65;64.19;99717.64;129806;1093;22594;-59
2021/08/04 05:22:43;;;;;;;26.78;9.83;;;;;;;20.80;63.79;99726.33;129811;1092;22561;-59
2021/08/04 05:25:13;;;;;;;36.45;10.93;;;;;;;20.92;63.85;99731.25;129644;1092;114194;-58
2021/08/04 05:27:42;;;;;;;22.78;9.45;;;;;;;21.01;63.34;99728.53;129812;1093;22516;-60
2021/08/04 05:30:14;;;;;;;41.85;11.10;;;;;;;21.08;64.00;99721.36;129676;1093;114318;-60
2021/08/04 05:32:43;;;;;;;26.98;10.15;;;;;;;21.11;64.53;99730.98;129783;1092;23236;-61
2021/08/04 05:35:13;;;;;;;29.48;10.78;;;;;;;21.14;64.83;99733.94;129792;1093;22541;-59
2021/08/04 05:37:42;;;;;;;35.35;11.10;;;;;;;21.31;64.47;99732.37;129644;1092;114427;-59
2021/08/04 05:40:15;;;;;;;32.08;11.03;;;;;;;21.63;63.04;99736.64;129784;1093;22575;-61
2021/08/04 05:42:44;;;;;;;29.58;10.55;;;;;;;22.06;61.36;99726.36;129901;1090;114581;-61
2021/08/04 05:45:14;;;;;;;20.80;8.83;;;;;;;22.61;59.78;99716.39;129974;1090;22568;-61
2021/08/04 05:47:42;;;;;;;17.53;9.00;;;;;;;23.21;58.22;99719.70;129983;1093;113957;-62
2021/08/04 05:50:12;;;;;;;21.08;8.85;;;;;;;23.77;56.39;99711.92;130086;1090;22577;-62
2021/08/04 05:52:41;;;;;;;15.70;7.63;;;;;;;24.27;53.86;99708.16;130078;1093;23153;-61
2021/08/04 05:55:10;;;;;;;17.23;8.47;;;;;;;24.64;53.17;99718.22;129970;1090;113902;-62
2021/08/04 05:57:40;;;;;;;12.80;6.80;;;;;;;24.97;51.18;99715.34;130063;1090;22593;-61
2021/08/04 06:00:10;;;;;;;20.00;7.63;;;;;;;25.23;50.58;99716.96;129996;1090;114222;-62
2021/08/04 06:02:39;;;;;;;16.93;7.93;;;;;;;25.39;50.90;99723.45;130095;1090;22540;-62
2021/08/04 06:05:09;;;;;;;13.73;7.43;;;;;;;25.52;49.40;99716.67;130084;1090;22532;-61
2021/08/04 06:07:38;;;;;;;10.85;6.48;;;;;;;25.62;48.65;99718.17;129955;1090;114656;-61
2021/08/04 06:10:07;;;;;;;14.80;7.13;;;;;;;25.65;48.80;99715.50;130117;1090;22542;-61
2021/08/04 06:12:36;;;;;;;10.90;5.90;;;;;;;25.67;48.66;99713.16;129963;1093;113875;-61
2021/08/04 06:15:06;;;;;;;9.75;5.15;;;;;;;25.56;47.86;99708.38;130087;1090;23425;-62
2021/08/04 06:17:35;;;;;;;11.08;5.40;;;;;;;25.47;47.64;99713.30;129964;1093;113934;-61
2021/08/04 06:20:05;;;;;;;6.75;5.23;;;;;;;25.40;47.19;99713.07;130096;1090;22610;-60
2021/08/04 06:22:34;;;;;;;9.13;5.03;;;;;;;25.32;46.92;99707.29;130066;1090;22781;-60
2021/08/04 06:25:03;;;;;;;9.55;4.30;;;;;;;25.23;46.41;99712.20;129984;1090;113884;-60
2021/08/04 06:27:32;;;;;;;9.53;4.75;;;;;;;25.10;46.41;99713.38;130038;1090;23074;-61
2021/08/04 06:30:02;;;;;;;7.75;4.68;;;;;;;24.97;46.44;99715.34;129968;1090;113390;-61
2021/08/04 06:32:31;;;;;;;16.45;5.95;;;;;;;24.86;46.96;99716.13;130037;1093;22533;-63
2021/08/04 06:35:00;;;;;;;29.13;7.88;;;;;;;24.77;47.30;99718.23;130088;1090;22562;-63
2021/08/04 06:37:29;;;;;;;13.20;4.60;;;;;;;24.68;46.38;99726.68;129977;1090;114229;-62
2021/08/04 06:39:57;;;;;;;14.25;4.33;;;;;;;24.59;45.06;99715.66;130070;1090;22568;-63
2021/08/04 06:42:26;;;;;;;19.20;5.50;;;;;;;24.54;46.31;99717.84;129964;1089;114206;-62
2021/08/04 06:44:55;;;;;;;18.50;7.05;;;;;;;24.48;46.78;99725.63;130116;1090;22592;-63
2021/08/04 06:47:25;;;;;;;25.50;7.00;;;;;;;24.45;47.38;99720.74;130102;1090;22653;-62
2021/08/04 06:50:13;;;;;;;14.00;5.03;;;;;;;24.43;47.64;99719.45;129976;1093;113686;-62
2021/08/04 06:52:43;;;;;;;14.58;4.83;;;;;;;24.42;46.45;99720.61;130080;1093;22484;-63
2021/08/04 06:55:13;;;;;;;30.78;6.98;;;;;;;24.38;46.83;99725.27;129945;1090;113823;-62
2021/08/04 06:57:42;;;;;;;12.53;5.43;;;;;;;24.31;47.15;99721.06;130082;1090;22634;-62
2021/08/04 07:00:11;;;;;;;9.85;4.83;;;;;;;24.25;46.73;99719.64;129990;1090;114001;-62
2021/08/04 07:02:40;;;;;;;9.60;3.55;;;;;;;24.22;45.78;99725.08;130142;1090;22528;-62
2021/08/04 07:05:10;;;;;;;10.90;3.60;;;;;;;24.20;45.34;99719.03;130064;1091;22651;-63
2021/08/04 07:07:41;;;;;;;7.45;3.78;;;;;;;24.18;44.55;99713.81;129994;1090;113781;-62
2021/08/04 07:10:11;;;;;;;7.88;3.45;;;;;;;24.15;43.42;99720.05;130086;1090;23084;-63
2021/08/04 07:12:40;;;;;;;8.78;3.18;;;;;;;24.14;44.80;99714.83;130007;1093;114857;-62
2021/08/04 07:15:09;;;;;;;6.90;3.20;;;;;;;24.15;45.05;99716.45;130106;1090;22545;-62
2021/08/04 07:17:45;;;;;;;5.60;3.33;;;;;;;24.17;45.01;99711.36;130075;1093;22564;-62
2021/08/04 07:20:15;;;;;;;11.73;3.30;;;;;;;24.19;45.05;99714.63;129959;1090;113890;-63
2021/08/04 07:22:44;;;;;;;15.25;4.43;;;;;;;24.21;44.26;99704.77;130063;1090;23349;-62
2021/08/04 07:25:14;;;;;;;5.50;2.50;;;;;;;24.25;44.15;99707.69;130009;1090;113943;-62
2021/08/04 07:27:43;;;;;;;2.60;2.30;;;;;;;24.31;43.71;99709.11;130129;1093;22582;-61
2021/08/04 07:30:12;;;;;;;6.78;2.63;;;;;;;24.35;43.17;99707.27;129979;1090;113915;-61
2021/08/04 07:32:41;;;;;;;13.63;3.38;;;;;;;24.39;42.46;99710.97;130089;1090;22550;-61
2021/08/04 07:35:14;;;;;;;4.53;2.58;;;;;;;24.42;42.32;99712.25;130089;1090;22538;-61
2021/08/04 07:37:45;;;;;;;7.15;2.63;;;;;;;24.44;42.47;99710.75;129957;1091;113798;-61
2021/08/04 07:40:16;;;;;;;5.73;2.60;;;;;;;24.45;41.96;99708.78;130088;1089;22694;-59
2021/08/04 07:42:48;;;;;;;5.53;2.73;;;;;;;24.48;41.69;99716.45;129997;1090;113684;-59
2021/08/04 07:45:17;;;;;;;5.35;2.20;;;;;;;24.50;40.32;99711.36;130087;1090;22553;-58
2021/08/04 07:47:46;;;;;;;4.03;2.38;;;;;;;24.51;40.78;99716.59;130073;1090;23213;-59
2021/08/04 07:50:15;;;;;;;2.83;1.85;;;;;;;24.52;39.37;99717.40;129990;1090;113335;-59
2021/08/04 07:52:44;;;;;;;2.25;2.05;;;;;;;24.48;39.56;99711.70;130103;1090;22554;-59
2021/08/04 07:55:16;;;;;;;3.10;2.40;;;;;;;24.41;40.48;99716.20;130003;1090;113791;-58
2021/08/04 07:57:45;;;;;;;3.75;2.38;;;;;;;24.39;41.27;99724.89;130091;1090;23709;-60
2021/08/04 08:00:14;;;;;;;2.35;2.03;;;;;;;24.37;40.55;99712.50;129961;1090;113994;-59
2021/08/04 08:02:43;;;;;;;8.33;2.33;;;;;;;24.37;39.71;99718.88;130081;1091;22550;-58
2021/08/04 08:05:13;;;;;;;4.60;2.25;;;;;;;24.35;40.79;99718.41;130096;1090;22555;-59
2021/08/04 08:07:47;;;;;;;3.95;2.10;;;;;;;24.38;41.04;99719.70;129982;1091;113774;-59
2021/08/04 08:10:31;;;;;;;3.93;2.38;;;;;;;24.38;41.60;99714.94;130084;1090;22576;-59
2021/08/04 08:12:59;;;;;;;6.33;3.15;;;;;;;24.38;41.65;99714.13;129987;1090;113743;-59
2021/08/04 08:15:45;;;;;;;7.80;2.60;;;;;;;24.33;41.00;99701.22;130071;1093;22801;-58
2021/08/04 08:18:34;;;;;;;5.00;2.90;;;;;;;24.29;40.88;99698.31;129959;1090;114229;-59
2021/08/04 08:21:03;;;;;;;6.00;2.93;;;;;;;24.28;41.34;99704.22;130088;1090;23436;-59
2021/08/04 08:23:32;;;;;;;2.85;2.40;;;;;;;24.29;42.02;99692.74;130072;1092;22488;-59
2021/08/04 08:26:00;;;;;;;7.05;2.45;;;;;;;24.33;42.30;99711.55;129681;1093;114772;-58
2021/08/04 08:28:29;;;;;;;3.78;2.20;;;;;;;24.38;42.47;99706.59;130099;1090;22575;-59
2021/08/04 08:30:58;;;;;;;3.35;2.50;;;;;;;24.43;42.09;99703.55;130004;1090;113706;-59
2021/08/04 08:33:27;;;;;;;5.73;2.00;;;;;;;24.48;41.06;99699.74;130085;1090;22527;-58
2021/08/04 08:36:03;;;;;;;;;;;;;;;24.54;41.66;99703.91;130003;1091;113890;-58
2021/08/04 08:38:32;;;;;;;5.68;2.40;;;;;;;24.57;40.41;99692.89;130067;1090;21807;-59
2021/08/04 08:41:01;;;;;;;5.30;2.18;;;;;;;24.59;39.34;99686.98;130103;1090;22545;-61
2021/08/04 08:43:30;;;;;;;4.05;2.33;;;;;;;24.58;40.21;99685.34;129924;1092;113799;-61
2021/08/04 08:45:59;;;;;;;5.55;1.90;;;;;;;24.60;39.32;99685.82;130077;1090;22557;-61
2021/08/04 08:48:28;;;;;;;3.03;2.33;;;;;;;24.61;39.54;99693.02;129942;1093;113885;-61
2021/08/04 08:50:57;;;;;;;5.73;2.48;;;;;;;24.62;40.15;99683.50;130086;1090;22513;-62
2021/08/04 08:53:26;;;;;;;3.88;2.33;;;;;;;24.64;40.43;99675.61;130067;1092;22588;-62
2021/08/04 08:55:54;;;;;;;2.65;1.75;;;;;;;24.70;38.92;99685.34;129955;1090;113747;-61
2021/08/04 08:58:24;;;;;;;2.78;1.88;;;;;;;24.71;39.16;99675.83;130075;1091;22525;-62
2021/08/04 09:00:53;;;;;;;5.40;2.20;;;;;;;24.73;38.64;99681.88;130001;1090;113818;-61
2021/08/04 09:03:22;;;;;;;4.00;1.85;;;;;;;24.73;38.12;99678.27;130093;1090;22526;-61
2021/08/04 09:05:53;;;;;;;3.30;2.00;;;;;;;24.70;37.74;99673.39;129941;1093;113916;-62
2021/08/04 09:08:29;;;;;;;4.53;2.43;;;;;;;24.69;39.11;99680.94;130096;1089;22563;-62
2021/08/04 09:11:15;;;;;;;5.93;2.65;;;;;;;24.70;38.63;99674.20;130054;1090;23223;-61
2021/08/04 09:13:45;;;;;;;3.13;2.00;;;;;;;24.72;38.61;99671.08;130014;1093;113704;-61
2021/08/04 09:16:15;;;;;;;3.43;2.40;;;;;;;24.72;37.92;99663.52;130106;1090;22534;-61
2021/08/04 09:18:51;;;;;;;6.10;2.50;;;;;;;24.72;38.75;99671.89;129981;1090;114136;-62
2021/08/04 09:21:20;;;;;;;2.65;2.33;;;;;;;24.76;38.69;99672.01;130114;1090;22692;-62
2021/08/04 09:23:53;;;;;;;5.65;2.30;;;;;;;24.79;38.45;99671.31;130081;1090;23385;-61
2021/08/04 09:26:23;;;;;;;8.60;2.60;;;;;;;24.83;39.29;99666.65;130014;1090;114440;-63
2021/08/04 09:28:58;;;;;;;4.30;2.20;;;;;;;24.88;41.23;99664.45;130017;1092;22648;-62
2021/08/04 09:31:51;;;;;;;3.25;1.90;;;;;;;24.95;40.66;99670.30;130016;1090;113180;-62
2021/08/04 09:34:36;;;;;;;2.87;2.00;;;;;;;25.07;39.85;99671.44;130111;1090;22540;-62
2021/08/04 09:37:16;;;;;;;8.13;2.25;;;;;;;25.15;38.92;99665.72;129969;1090;113836;-62
2021/08/04 09:39:56;;;;;;;4.88;2.05;;;;;;;25.22;39.30;99662.34;130083;1090;22557;-59
2021/08/04 09:42:50;;;;;;;25.65;4.08;;;;;;;25.28;38.68;99667.31;129991;1090;113985;-60
2021/08/04 09:45:25;;;;;;;11.05;3.43;;;;;;;25.32;38.94;99668.23;130087;1090;22549;-60
2021/08/04 09:48:01;;;;;;;2.40;2.20;;;;;;;25.35;37.94;99667.54;130048;1090;22547;-59
2021/08/04 09:50:43;;;;;;;2.80;2.23;;;;;;;25.39;37.59;99664.05;130015;1090;113716;-60
2021/08/04 09:53:17;;;;;;;3.63;2.75;;;;;;;25.37;36.36;99667.19;130082;1089;22622;-60
2021/08/04 09:56:22;;;;;;;7.60;2.43;;;;;;;25.30;37.07;99661.38;129956;1089;113716;-60
2021/08/04 09:58:52;;;;;;;2.85;2.38;;;;;;;25.24;38.73;99651.66;129736;1096;22534;-60
2021/08/04 10:01:39;;;;;;;4.60;2.28;;;;;;;25.23;38.50;99655.61;129609;1096;113939;-60
2021/08/04 10:04:10;;;;;;;5.33;2.47;;;;;;;25.21;38.51;99657.93;129722;1097;22534;-60
2021/08/04 10:06:43;;;;;;;4.58;2.40;;;;;;;25.22;38.45;99642.83;129613;1096;113941;-60
2021/08/04 10:09:17;;;;;;;4.60;2.55;;;;;;;25.21;37.23;99649.56;129728;1096;22642;-60
2021/08/04 10:11:48;;;;;;;2.20;2.00;;;;;;;25.19;37.89;99654.67;129724;1093;22539;-60
2021/08/04 10:14:18;;;;;;;3.73;2.30;;;;;;;25.20;38.70;99647.94;129648;1096;114734;-60
2021/08/04 10:16:51;;;;;;;3.95;2.25;;;;;;;25.23;38.71;99644.45;129475;1096;23665;-60
2021/08/04 10:19:20;;;;;;;8.00;2.60;;;;;;;25.24;38.78;99644.10;129600;1094;113811;-60
2021/08/04 10:21:50;;;;;;;2.85;1.93;;;;;;;25.28;39.08;99649.77;129747;1093;22595;-60
2021/08/04 10:24:20;;;;;;;6.18;1.93;;;;;;;25.33;39.81;99649.52;129590;1095;114275;-60
2021/08/04 10:26:49;;;;;;;4.60;2.08;;;;;;;25.38;38.97;99646.50;129734;1095;23529;-60
2021/08/04 10:29:19;;;;;;;4.35;2.08;;;;;;;25.44;38.33;99653.44;129765;1094;22573;-60
2021/08/04 10:31:49;;;;;;;2.80;2.05;;;;;;;25.47;37.92;99637.97;129344;1096;114093;-59
2021/08/04 10:34:25;;;;;;;2.40;2.03;;;;;;;25.50;38.43;99638.08;130030;1093;22594;-60
2021/08/04 10:36:58;;;;;;;4.18;2.00;;;;;;;25.56;38.47;99639.44;129967;1093;114147;-60
2021/08/04 10:39:27;;;;;;;2.58;2.30;;;;;;;25.60;36.76;99636.75;129828;1092;23465;-60
2021/08/04 10:42:06;;;;;;;2.23;1.70;;;;;;;25.56;38.25;99650.59;130089;1093;23301;-60
2021/08/04 10:44:36;;;;;;;3.65;1.95;;;;;;;25.53;38.86;99645.75;129931;1093;117477;-60
2021/08/04 10:47:05;;;;;;;3.95;1.73;;;;;;;25.53;39.47;99640.17;130111;1092;22987;-60
2021/08/04 10:49:36;;;;;;;3.35;2.13;;;;;;;25.57;38.55;99629.90;129957;1093;114140;-60
2021/08/04 10:52:06;;;;;;;6.60;2.20;;;;;;;25.59;40.11;99635.13;130117;1090;22663;-60
2021/08/04 10:54:36;;;;;;;9.05;2.33;;;;;;;25.61;40.28;99638.38;129988;1092;114402;-60
2021/08/04 10:57:06;;;;;;;3.65;2.08;;;;;;;25.64;39.29;99638.52;130109;1093;23286;-60
2021/08/04 10:59:36;;;;;;;5.13;2.10;;;;;;;25.69;39.40;99643.83;130073;1093;22669;-60
2021/08/04 11:02:05;;;;;;;2.93;1.60;;;;;;;25.71;38.52;99638.70;130006;1090;113612;-60
2021/08/04 11:04:39;;;;;;;6.30;2.37;;;;;;;25.75;39.05;99632.41;130091;1089;22698;-60
2021/08/04 11:07:16;;;;;;;3.68;2.30;;;;;;;25.78;39.93;99631.70;129992;1090;114201;-60
2021/08/04 11:10:05;;;;;;;2.60;2.13;;;;;;;25.80;39.64;99635.77;130096;1090;22651;-60
2021/08/04 11:12:34;;;;;;;2.45;2.03;;;;;;;25.82;40.27;99638.20;130025;1090;113527;-61
2021/08/04 11:15:21;;;;;;;4.10;2.20;;;;;;;25.84;38.71;99630.27;130083;1091;23085;-60
2021/08/04 11:18:16;;;;;;;14.48;3.35;;;;;;;25.82;38.57;99636.23;130094;1092;22570;-60
2021/08/04 11:21:20;;;;;;;6.28;2.30;;;;;;;25.82;39.84;99629.83;129969;1090;114194;-60
2021/08/04 11:23:51;;;;;;;9.63;2.70;;;;;;;25.81;41.13;99629.02;129712;1093;22573;-60
2021/08/04 11:26:22;;;;;;;6.43;2.80;;;;;;;25.79;40.33;99624.96;129638;1093;114462;-60
2021/08/04 11:28:51;;;;;;;5.00;2.35;;;;;;;25.77;39.94;99630.08;129777;1093;23400;-60
2021/08/04 11:31:21;;;;;;;22.43;3.90;;;;;;;25.74;40.18;99620.44;129649;1093;114114;-60
2021/08/04 11:33:50;;;;;;;15.13;3.20;;;;;;;25.69;40.32;99618.70;129759;1091;23413;-59
2021/08/04 11:36:21;;;;;;;4.53;2.13;;;;;;;25.67;40.56;99629.44;129729;1093;22574;-60